Time;durP1;ratioP1;P1;durP2;ratioP2;P2;SDS_P1;SDS_P2;PMS_P1;PMS_P2;Temp;Humidity;BMP_temperature;BMP_pressure;BME280_temperature;BME280_humidity;BME280_pressure;Samples;Min_cycle;Max_cycle;Signal;HPM_P1;HPM_P2
2022/12/03 00:00:26;;;;;;;22.40;12.80;;;4.20;99.90;;;;;;4972460;28;20043;-78
2022/12/03 00:02:55;;;;;;;33.58;19.27;;;4.30;99.90;;;;;;4974932;28;20019;-78
2022/12/03 00:05:22;;;;;;;29.98;17.60;;;4.30;99.90;;;;;;4937779;29;20374;-77
2022/12/03 00:07:47;;;;;;;29.83;17.60;;;4.30;99.90;;;;;;4965019;28;20021;-78
2022/12/03 00:10:13;;;;;;;31.65;20.58;;;4.20;99.90;;;;;;4972244;28;20039;-77
2022/12/03 00:12:44;;;;;;;59.63;34.63;;;4.20;99.90;;;;;;4972324;28;20019;-79
2022/12/03 00:15:12;;;;;;;31.55;18.92;;;4.20;99.90;;;;;;4955874;28;20097;-77
2022/12/03 00:17:38;;;;;;;30.95;17.27;;;4.30;99.90;;;;;;4972634;28;20840;-78
2022/12/03 00:20:08;;;;;;;28.05;15.27;;;4.30;99.90;;;;;;4973501;28;20027;-80
2022/12/03 00:22:39;;;;;;;33.10;17.75;;;4.40;99.90;;;;;;4972719;28;20110;-78
2022/12/03 00:25:06;;;;;;;43.92;27.75;;;4.20;99.90;;;;;;4972587;28;20023;-78
2022/12/03 00:27:32;;;;;;;44.15;25.92;;;4.10;99.90;;;;;;4971568;28;20019;-78
2022/12/03 00:29:58;;;;;;;34.45;17.52;;;4.00;99.90;;;;;;4971650;28;20533;-77
2022/12/03 00:32:24;;;;;;;26.35;16.60;;;3.90;99.90;;;;;;4954599;28;20037;-78
2022/12/03 00:34:50;;;;;;;27.48;16.90;;;3.80;99.90;;;;;;4972349;28;20315;-78
2022/12/03 00:37:16;;;;;;;22.55;13.90;;;3.80;99.90;;;;;;4973983;28;20057;-78
2022/12/03 00:39:42;;;;;;;23.65;15.35;;;3.80;99.90;;;;;;4972282;28;20097;-77
2022/12/03 00:42:08;;;;;;;26.60;15.30;;;3.90;99.90;;;;;;4972760;28;20023;-77
2022/12/03 00:44:34;;;;;;;25.73;16.33;;;4.00;99.90;;;;;;4954995;28;20026;-77
2022/12/03 00:47:00;;;;;;;29.23;19.05;;;3.90;99.90;;;;;;4972511;28;20089;-76
2022/12/03 00:49:26;;;;;;;25.98;15.50;;;3.90;99.90;;;;;;4972099;28;20122;-76
2022/12/03 00:51:52;;;;;;;28.75;15.63;;;3.90;99.90;;;;;;4972081;28;20019;-78
2022/12/03 00:54:18;;;;;;;26.70;16.58;;;3.90;99.90;;;;;;4972450;28;20085;-80
2022/12/03 00:56:43;;;;;;;31.65;19.80;;;3.80;99.90;;;;;;4972140;28;20519;-75
2022/12/03 00:59:09;;;;;;;38.45;23.35;;;3.90;99.90;;;;;;4971652;28;20063;-79
2022/12/03 01:01:35;;;;;;;40.58;28.60;;;3.90;99.90;;;;;;4967199;28;20111;-78
2022/12/03 01:04:01;;;;;;;38.65;24.35;;;3.80;99.90;;;;;;4970498;28;20122;-76
2022/12/03 01:06:27;;;;;;;33.80;19.65;;;3.70;99.90;;;;;;4970472;28;20362;-77
2022/12/03 01:08:52;;;;;;;24.00;14.82;;;3.60;99.90;;;;;;4971287;28;20445;-77
2022/12/03 01:11:36;;;;;;;28.42;16.95;;;3.60;99.90;;;;;;4971783;28;20483;-79
2022/12/03 01:14:04;;;;;;;52.45;25.08;;;3.60;99.90;;;;;;4971666;28;20114;-77
2022/12/03 01:16:29;;;;;;;44.00;21.77;;;3.60;99.90;;;;;;4972866;28;20058;-77
2022/12/03 01:18:55;;;;;;;38.05;18.48;;;3.50;99.90;;;;;;4973749;28;20381;-77
2022/12/03 01:21:21;;;;;;;39.60;21.90;;;3.50;99.90;;;;;;4971881;28;20501;-78
2022/12/03 01:23:47;;;;;;;39.47;20.67;;;3.50;99.90;;;;;;4972860;28;20077;-77
2022/12/03 01:26:13;;;;;;;42.90;25.05;;;3.60;99.90;;;;;;4976466;28;20022;-78
2022/12/03 01:28:40;;;;;;;64.80;32.88;;;3.60;99.90;;;;;;4976380;28;20032;-76
2022/12/03 01:33:51;;;;;;;38.80;23.00;;;3.50;99.90;;;;;;4981745;28;20027;-77
2022/12/03 01:36:17;;;;;;;32.30;18.20;;;3.50;99.90;;;;;;4978200;28;20043;-77
2022/12/03 01:38:43;;;;;;;30.38;16.80;;;3.50;99.90;;;;;;4976628;28;20022;-78
2022/12/03 01:41:09;;;;;;;26.83;17.38;;;3.40;99.90;;;;;;4983270;28;20030;-78
2022/12/03 01:43:35;;;;;;;24.30;13.82;;;3.30;99.90;;;;;;4977020;28;20066;-77
2022/12/03 01:46:01;;;;;;;24.02;15.70;;;3.30;99.90;;;;;;4958085;28;20031;-77
2022/12/03 01:48:31;;;;;;;25.50;14.35;;;3.30;99.90;;;;;;4979843;28;20027;-78
2022/12/03 01:50:57;;;;;;;26.13;14.85;;;3.20;99.90;;;;;;4977581;28;20437;-78
2022/12/03 01:53:24;;;;;;;22.98;13.73;;;3.30;99.90;;;;;;4975056;28;20102;-78
2022/12/03 01:55:50;;;;;;;23.67;14.23;;;3.30;99.90;;;;;;4975999;28;20110;-78
2022/12/03 01:58:21;;;;;;;22.33;13.77;;;3.40;99.90;;;;;;4959745;28;20046;-78
2022/12/03 02:00:47;;;;;;;46.30;28.70;;;3.40;99.90;;;;;;4975375;28;20038;-78
2022/12/03 02:03:31;;;;;;;30.00;16.95;;;3.40;99.90;;;;;;4975899;28;20031;-76
2022/12/03 02:05:57;;;;;;;21.42;13.48;;;3.30;99.90;;;;;;4964085;28;20121;-77
2022/12/03 02:08:28;;;;;;;21.08;13.40;;;3.30;99.90;;;;;;4975290;28;20447;-77
2022/12/03 02:10:55;;;;;;;23.38;14.38;;;3.30;99.90;;;;;;4978584;28;20527;-79
2022/12/03 02:13:21;;;;;;;21.48;12.18;;;3.30;99.90;;;;;;4975715;28;20027;-76
2022/12/03 02:15:47;;;;;;;24.02;13.52;;;3.30;99.90;;;;;;4979581;28;20078;-78
2022/12/03 02:18:13;;;;;;;34.88;21.73;;;3.20;99.90;;;;;;4977067;28;20030;-75
2022/12/03 02:20:48;;;;;;;28.35;17.17;;;3.20;99.90;;;;;;4974329;28;20034;-78
2022/12/03 02:23:49;;;;;;;25.55;15.48;;;3.30;99.90;;;;;;4974514;28;20027;-75
2022/12/03 02:26:15;;;;;;;27.52;16.65;;;3.30;99.90;;;;;;4975517;28;20027;-78
2022/12/03 02:28:40;;;;;;;27.92;16.13;;;3.30;99.90;;;;;;4974340;28;20504;-78
2022/12/03 02:31:06;;;;;;;25.23;16.08;;;3.20;99.90;;;;;;4974202;28;20069;-76
2022/12/03 02:33:32;;;;;;;24.20;15.10;;;3.20;99.90;;;;;;4986205;28;20469;-76
2022/12/03 02:35:58;;;;;;;23.73;13.80;;;3.00;99.90;;;;;;4975340;28;20062;-75
2022/12/03 02:38:26;;;;;;;22.67;13.85;;;3.00;99.90;;;;;;4974096;28;20035;-77
2022/12/03 02:40:56;;;;;;;20.88;12.65;;;3.10;99.90;;;;;;4975827;28;20034;-76
2022/12/03 02:43:23;;;;;;;26.27;13.85;;;3.10;99.90;;;;;;4966431;28;20466;-77
2022/12/03 02:45:53;;;;;;;24.80;14.25;;;3.00;99.90;;;;;;4985620;28;20035;-76
2022/12/03 02:48:27;;;;;;;27.58;16.02;;;3.00;99.90;;;;;;4980746;28;20034;-80
2022/12/03 02:50:55;;;;;;;24.98;13.63;;;3.10;99.90;;;;;;4977680;28;20039;-77
2022/12/03 02:53:29;;;;;;;24.05;13.85;;;2.90;99.90;;;;;;4980068;28;20030;-77
2022/12/03 02:55:57;;;;;;;24.98;13.80;;;2.90;99.90;;;;;;4980752;28;20022;-77
2022/12/03 02:58:24;;;;;;;21.50;12.63;;;3.00;99.90;;;;;;4980133;28;20381;-80
2022/12/03 03:00:53;;;;;;;23.95;14.07;;;3.00;99.90;;;;;;4977642;28;20027;-78
2022/12/03 03:03:20;;;;;;;24.48;14.30;;;3.00;99.90;;;;;;4979047;28;20026;-77
2022/12/03 03:05:47;;;;;;;22.52;13.23;;;3.00;99.90;;;;;;4990786;28;20018;-76
2022/12/03 03:08:14;;;;;;;25.77;14.90;;;3.00;99.90;;;;;;4973831;28;20019;-79
2022/12/03 03:10:41;;;;;;;27.13;13.90;;;2.90;99.90;;;;;;4986612;28;20030;-78
2022/12/03 03:13:10;;;;;;;25.65;14.73;;;2.90;99.90;;;;;;4992840;28;20033;-77
2022/12/03 03:15:37;;;;;;;25.48;13.80;;;3.00;99.90;;;;;;4956868;28;20037;-75
2022/12/03 03:18:04;;;;;;;27.27;14.50;;;3.00;99.90;;;;;;4975346;28;20019;-77
2022/12/03 03:20:31;;;;;;;23.52;13.50;;;3.00;99.90;;;;;;4983272;28;20027;-77
2022/12/03 03:23:11;;;;;;;21.40;13.13;;;3.00;99.90;;;;;;4966952;28;20031;-76
2022/12/03 03:25:39;;;;;;;31.35;18.40;;;3.10;99.90;;;;;;4979712;28;20392;-77
2022/12/03 03:28:06;;;;;;;28.45;17.75;;;3.00;99.90;;;;;;4988613;28;20026;-78
2022/12/03 03:30:34;;;;;;;32.60;20.05;;;3.00;99.90;;;;;;4992202;28;20583;-77
2022/12/03 03:33:00;;;;;;;26.88;16.58;;;3.10;99.90;;;;;;4984946;28;20066;-76
2022/12/03 03:35:26;;;;;;;29.85;16.13;;;2.90;99.90;;;;;;4973381;28;20043;-77
2022/12/03 03:37:53;;;;;;;22.50;12.40;;;2.90;99.90;;;;;;4987682;28;20019;-78
2022/12/03 03:40:20;;;;;;;26.33;15.25;;;2.80;99.90;;;;;;4973502;28;20026;-77
2022/12/03 03:42:47;;;;;;;32.13;19.10;;;2.90;99.90;;;;;;5006295;28;20374;-78
2022/12/03 03:45:13;;;;;;;28.77;14.55;;;2.90;99.90;;;;;;4980240;28;20038;-77
2022/12/03 03:47:41;;;;;;;25.75;15.45;;;2.90;99.90;;;;;;4977017;28;20485;-77
2022/12/03 03:50:09;;;;;;;31.02;17.30;;;2.90;99.90;;;;;;4978716;28;20062;-78
2022/12/03 03:52:36;;;;;;;29.55;17.20;;;3.00;99.90;;;;;;4982479;28;20034;-78
2022/12/03 03:55:04;;;;;;;27.85;17.38;;;3.00;99.90;;;;;;4975114;28;20027;-78
2022/12/03 03:57:29;;;;;;;29.20;15.38;;;3.10;99.90;;;;;;4956045;28;20434;-77
2022/12/03 03:59:57;;;;;;;29.92;16.77;;;3.10;99.90;;;;;;4976188;28;20119;-77
2022/12/03 04:02:25;;;;;;;70.97;44.17;;;3.10;99.90;;;;;;4974870;28;20062;-77
2022/12/03 04:04:51;;;;;;;43.38;25.42;;;3.10;99.90;;;;;;4972475;28;20500;-77
2022/12/03 04:07:17;;;;;;;39.20;18.98;;;3.00;99.90;;;;;;4972454;28;20022;-77
2022/12/03 04:09:43;;;;;;;58.83;34.72;;;3.00;99.90;;;;;;4972711;28;20613;-77
2022/12/03 04:14:54;;;;;;;28.52;17.35;;;3.00;99.90;;;;;;4972415;28;20039;-79
2022/12/03 04:17:20;;;;;;;25.92;16.30;;;3.00;99.90;;;;;;4977102;28;20015;-79
2022/12/03 04:19:46;;;;;;;26.00;16.23;;;3.00;99.90;;;;;;4972786;28;20046;-78
2022/12/03 04:28:47;;;;;;;29.73;19.80;;;2.90;99.90;;;;;;4974890;28;20037;-77
2022/12/03 04:30:27;;;;;;;35.03;20.80;;;2.70;99.90;;;;;;4971901;28;20081;-75
2022/12/03 04:35:43;;;;;;;29.67;18.80;;;2.50;99.90;;;;;;4972790;28;20474;-75
2022/12/03 04:38:14;;;;;;;27.85;15.75;;;2.50;99.90;;;;;;4971866;28;20041;-76
2022/12/03 04:43:26;;;;;;;29.52;16.60;;;2.50;99.90;;;;;;4971827;28;20085;-77
2022/12/03 04:45:51;;;;;;;27.23;17.88;;;2.50;99.90;;;;;;4954828;28;20138;-77
2022/12/03 04:48:17;;;;;;;32.55;22.45;;;2.50;99.90;;;;;;4971592;28;20102;-77
2022/12/03 04:50:44;;;;;;;33.75;22.40;;;2.50;99.90;;;;;;4954745;28;20089;-77
2022/12/03 04:53:10;;;;;;;34.58;21.08;;;2.50;99.90;;;;;;4971654;28;20027;-77
2022/12/03 04:55:35;;;;;;;26.63;17.95;;;2.50;99.90;;;;;;4972248;28;20133;-78
2022/12/03 04:58:01;;;;;;;24.88;16.80;;;2.30;99.90;;;;;;4939838;28;20528;-76
2022/12/03 05:00:27;;;;;;;27.88;17.50;;;2.40;99.90;;;;;;4974105;28;20097;-75
2022/12/03 05:02:53;;;;;;;32.67;24.80;;;2.40;99.90;;;;;;4980339;28;20027;-75
2022/12/03 05:05:19;;;;;;;26.70;16.38;;;2.40;99.90;;;;;;4980330;28;20385;-76
2022/12/03 05:07:44;;;;;;;27.08;15.50;;;2.40;99.90;;;;;;4976198;28;20031;-77
2022/12/03 05:10:11;;;;;;;24.38;16.10;;;2.30;99.90;;;;;;4974870;28;20114;-77
2022/12/03 05:12:37;;;;;;;26.17;17.20;;;2.30;99.90;;;;;;4975495;28;20496;-76
2022/12/03 05:15:04;;;;;;;28.35;17.17;;;2.30;99.90;;;;;;4975087;28;20161;-76
2022/12/03 05:17:30;;;;;;;24.98;16.10;;;2.40;99.90;;;;;;4974579;28;20031;-75
2022/12/03 05:22:40;;;;;;;37.13;23.02;;;2.50;99.90;;;;;;4975098;28;20031;-77
2022/12/03 05:25:06;;;;;;;34.33;22.60;;;2.50;99.90;;;;;;4974773;28;20307;-77
2022/12/03 05:27:32;;;;;;;31.02;22.27;;;2.50;99.90;;;;;;4974694;28;20055;-75
2022/12/03 05:29:57;;;;;;;32.42;17.95;;;2.50;99.90;;;;;;4974434;28;20070;-78
2022/12/03 05:32:23;;;;;;;25.83;16.10;;;2.50;99.90;;;;;;4975400;28;20095;-76
2022/12/03 05:34:49;;;;;;;31.23;19.25;;;2.60;99.90;;;;;;4974692;28;20114;-76
2022/12/03 05:37:15;;;;;;;28.65;16.77;;;2.60;99.90;;;;;;4974695;28;20049;-76
2022/12/03 05:39:41;;;;;;;27.45;17.90;;;2.60;99.90;;;;;;4974637;28;20126;-77
2022/12/03 05:44:52;;;;;;;31.08;22.83;;;2.50;99.90;;;;;;4976052;28;20035;-81
2022/12/03 05:47:18;;;;;;;33.78;19.80;;;2.40;99.90;;;;;;4969846;28;20023;-80
2022/12/03 05:49:44;;;;;;;29.70;18.05;;;2.40;99.90;;;;;;4990788;28;20031;-80
2022/12/03 05:52:09;;;;;;;27.45;18.10;;;2.40;99.90;;;;;;4991272;28;20417;-80
2022/12/03 05:54:36;;;;;;;25.98;15.40;;;2.40;99.90;;;;;;4961352;28;20382;-79
2022/12/03 05:57:02;;;;;;;26.30;15.45;;;2.40;99.90;;;;;;4974814;28;20046;-79
2022/12/03 05:59:27;;;;;;;25.50;15.90;;;2.40;99.90;;;;;;4974295;28;20074;-76
2022/12/03 06:01:53;;;;;;;65.78;43.13;;;2.40;99.90;;;;;;4974372;28;20038;-77
2022/12/03 06:04:19;;;;;;;42.25;27.58;;;2.40;99.90;;;;;;4974540;28;20055;-78
2022/12/03 06:06:45;;;;;;;30.33;20.75;;;2.50;99.90;;;;;;4974668;28;20057;-78
2022/12/03 06:09:11;;;;;;;39.38;26.30;;;2.50;99.90;;;;;;4974354;28;20133;-78
2022/12/03 06:11:39;;;;;;;30.88;21.13;;;2.40;99.90;;;;;;4974484;28;20027;-78
2022/12/03 06:14:04;;;;;;;32.65;22.38;;;2.40;99.90;;;;;;4974389;28;20030;-77
2022/12/03 06:16:30;;;;;;;38.08;21.90;;;2.30;99.90;;;;;;4974507;28;20488;-77
2022/12/03 06:18:56;;;;;;;39.55;24.38;;;2.40;99.90;;;;;;4974345;28;20035;-78
2022/12/03 06:21:22;;;;;;;58.60;36.75;;;2.40;99.90;;;;;;4973865;28;20019;-76
2022/12/03 06:23:48;;;;;;;44.53;27.27;;;2.40;99.90;;;;;;4973760;28;20053;-76
2022/12/03 06:26:14;;;;;;;78.15;44.90;;;2.30;99.90;;;;;;4974440;28;20106;-75
2022/12/03 06:28:45;;;;;;;70.95;40.53;;;2.30;99.90;;;;;;4975517;28;20042;-78
2022/12/03 06:31:11;;;;;;;99.63;56.88;;;2.30;99.90;;;;;;4974286;28;20037;-76
2022/12/03 06:33:37;;;;;;;63.35;38.03;;;2.30;99.90;;;;;;4973672;28;20023;-77
2022/12/03 06:36:03;;;;;;;41.83;27.50;;;2.20;99.90;;;;;;4982753;28;20034;-78
2022/12/03 06:38:29;;;;;;;54.65;34.97;;;2.20;99.90;;;;;;4954672;28;20033;-77
2022/12/03 06:40:56;;;;;;;52.90;31.48;;;2.20;99.90;;;;;;4985137;28;20423;-81
2022/12/03 06:43:23;;;;;;;47.88;27.92;;;2.30;99.90;;;;;;4975599;28;20069;-80
2022/12/03 06:45:49;;;;;;;50.47;32.80;;;2.40;99.90;;;;;;4981147;28;20026;-80
2022/12/03 06:48:17;;;;;;;42.20;26.38;;;2.30;99.90;;;;;;4984090;28;20026;-77
2022/12/03 06:50:48;;;;;;;43.40;27.75;;;2.30;99.90;;;;;;4986881;28;20019;-79
2022/12/03 06:53:17;;;;;;;97.38;58.97;;;2.40;99.90;;;;;;4965944;28;20575;-80
2022/12/03 06:55:47;;;;;;;89.95;53.35;;;2.50;99.90;;;;;;4973079;28;20044;-77
2022/12/03 06:58:30;;;;;;;28.73;15.77;;;2.50;99.90;;;;;;4989758;28;20569;-81
2022/12/03 07:00:59;;;;;;;25.60;16.50;;;2.50;99.90;;;;;;4986502;28;20043;-79
2022/12/03 07:03:25;;;;;;;27.48;17.85;;;2.50;99.90;;;;;;4965120;28;20066;-80
2022/12/03 07:05:51;;;;;;;33.63;23.88;;;2.50;99.90;;;;;;4986957;28;20038;-79
2022/12/03 07:08:16;;;;;;;30.48;21.63;;;2.60;99.90;;;;;;4984218;28;20015;-79
2022/12/03 07:10:42;;;;;;;34.38;23.58;;;2.70;99.90;;;;;;4984319;28;20568;-79
2022/12/03 07:13:08;;;;;;;40.97;27.52;;;2.70;99.90;;;;;;4979516;28;20015;-79
2022/12/03 07:15:34;;;;;;;30.95;21.65;;;2.70;99.90;;;;;;4979536;28;20050;-79
2022/12/03 07:17:59;;;;;;;28.15;18.77;;;2.70;99.90;;;;;;4975260;28;20062;-78
2022/12/03 07:20:25;;;;;;;22.08;15.00;;;2.80;99.90;;;;;;4976028;28;20031;-78
2022/12/03 07:22:51;;;;;;;23.48;16.08;;;3.00;99.90;;;;;;4978488;28;20039;-78
2022/12/03 07:25:17;;;;;;;22.02;12.98;;;2.90;99.90;;;;;;4986191;28;20029;-81
2022/12/03 07:27:43;;;;;;;19.70;12.48;;;2.90;99.90;;;;;;4989199;28;20019;-79
2022/12/03 07:30:12;;;;;;;20.95;12.25;;;2.80;99.90;;;;;;4984241;28;20030;-79
2022/12/03 07:32:38;;;;;;;20.15;12.20;;;2.90;99.90;;;;;;4982805;28;20019;-80
2022/12/03 07:35:06;;;;;;;20.90;12.35;;;2.80;99.90;;;;;;4979044;28;20503;-78
2022/12/03 07:37:33;;;;;;;18.25;10.63;;;2.80;99.90;;;;;;4977839;28;20019;-80
2022/12/03 07:39:59;;;;;;;21.75;12.93;;;2.90;99.90;;;;;;4979117;28;20113;-79
2022/12/03 07:42:24;;;;;;;31.20;16.98;;;2.90;99.90;;;;;;4980031;28;20023;-79
2022/12/03 07:44:50;;;;;;;24.58;14.77;;;2.90;99.90;;;;;;4981723;28;20039;-77
2022/12/03 07:47:16;;;;;;;29.65;16.95;;;2.90;99.90;;;;;;4983091;28;20027;-82
2022/12/03 07:49:42;;;;;;;28.70;15.70;;;3.10;99.90;;;;;;4986866;28;20034;-81
2022/12/03 07:52:08;;;;;;;25.80;15.15;;;3.20;99.90;;;;;;4965321;28;20065;-80
2022/12/03 07:54:34;;;;;;;27.17;18.13;;;3.30;99.90;;;;;;4982771;28;20045;-79
2022/12/03 07:57:01;;;;;;;22.52;15.57;;;3.40;99.90;;;;;;4977733;28;20058;-79
2022/12/03 07:59:27;;;;;;;26.20;14.70;;;3.60;99.90;;;;;;4953537;28;20100;-78
2022/12/03 08:01:53;;;;;;;22.90;13.43;;;3.80;99.90;;;;;;4973343;28;20031;-78
2022/12/03 08:04:20;;;;;;;22.88;14.73;;;4.00;99.90;;;;;;4959081;28;20448;-78
2022/12/03 08:06:46;;;;;;;20.90;12.63;;;4.20;99.90;;;;;;4975396;28;20473;-78
2022/12/03 08:09:12;;;;;;;22.48;13.05;;;4.30;99.90;;;;;;4973675;28;20038;-79
2022/12/03 08:11:38;;;;;;;21.63;13.15;;;4.40;99.90;;;;;;4989048;28;20038;-79
2022/12/03 08:14:26;;;;;;;21.63;12.70;;;4.50;99.90;;;;;;4978902;28;20030;-79
2022/12/03 08:16:52;;;;;;;23.10;13.48;;;4.50;99.90;;;;;;4974531;28;20027;-77
2022/12/03 08:19:19;;;;;;;26.48;14.80;;;4.50;99.90;;;;;;4956613;28;20023;-78
2022/12/03 08:21:45;;;;;;;24.20;14.88;;;4.60;99.90;;;;;;4958569;28;20058;-76
2022/12/03 08:24:15;;;;;;;21.02;13.80;;;4.60;99.90;;;;;;4977389;28;20027;-78
2022/12/03 08:26:43;;;;;;;22.85;13.27;;;4.50;99.90;;;;;;4972237;28;20027;-78
2022/12/03 08:29:12;;;;;;;27.80;16.60;;;4.70;99.90;;;;;;4974403;28;20035;-79
2022/12/03 08:31:39;;;;;;;22.85;13.57;;;4.80;99.90;;;;;;4973888;28;20027;-76
2022/12/03 08:34:20;;;;;;;27.40;14.30;;;4.90;99.90;;;;;;4974212;28;20914;-79
2022/12/03 08:36:48;;;;;;;32.10;19.95;;;5.00;99.90;;;;;;4976470;28;20066;-78
2022/12/03 08:39:40;;;;;;;37.88;22.40;;;5.10;99.90;;;;;;4959153;28;20039;-79
2022/12/03 08:44:54;;;;;;;36.10;19.85;;;5.10;99.90;;;;;;4975364;28;20070;-77
2022/12/03 08:47:22;;;;;;;32.38;19.15;;;5.20;99.90;;;;;;4975770;28;20019;-78
2022/12/03 08:49:50;;;;;;;31.27;18.10;;;5.30;99.90;;;;;;4974153;28;20504;-79
2022/12/03 08:52:21;;;;;;;29.58;18.55;;;5.30;99.90;;;;;;4972626;28;20023;-77
2022/12/03 08:54:52;;;;;;;30.60;18.08;;;5.40;99.90;;;;;;4977491;28;20035;-77
2022/12/03 08:57:23;;;;;;;36.55;21.75;;;5.50;99.90;;;;;;4974513;28;20015;-78
2022/12/03 08:59:53;;;;;;;27.02;18.30;;;5.60;99.90;;;;;;4977952;28;20059;-78
2022/12/03 09:02:29;;;;;;;30.25;18.02;;;5.70;99.90;;;;;;4959071;28;20460;-78
2022/12/03 09:04:55;;;;;;;30.77;17.13;;;5.60;99.90;;;;;;4973328;28;20027;-80
2022/12/03 09:07:21;;;;;;;27.70;16.92;;;5.60;99.90;;;;;;4975310;28;20045;-79
2022/12/03 09:09:47;;;;;;;28.02;17.55;;;5.40;99.90;;;;;;4964973;28;20051;-79
2022/12/03 09:12:13;;;;;;;31.17;18.38;;;5.60;99.90;;;;;;4976824;28;20023;-79
2022/12/03 09:14:40;;;;;;;29.08;17.60;;;5.60;99.90;;;;;;4975307;28;20077;-77
2022/12/03 09:17:07;;;;;;;30.45;18.50;;;5.70;99.90;;;;;;4959839;28;20465;-76
2022/12/03 09:19:32;;;;;;;37.13;20.38;;;5.80;99.90;;;;;;4973671;28;20027;-77
2022/12/03 09:21:58;;;;;;;28.25;17.52;;;5.90;99.90;;;;;;4975217;28;20023;-77
2022/12/03 09:24:24;;;;;;;27.65;15.68;;;6.00;99.90;;;;;;4975566;28;20042;-78
2022/12/03 09:26:50;;;;;;;33.80;19.00;;;5.90;99.90;;;;;;4975218;28;20035;-78
2022/12/03 09:29:16;;;;;;;32.78;17.38;;;6.00;99.90;;;;;;4974528;28;20097;-77
2022/12/03 09:31:42;;;;;;;28.77;18.20;;;6.10;99.90;;;;;;4975813;28;20043;-76
2022/12/03 09:34:09;;;;;;;27.70;17.00;;;6.20;99.90;;;;;;4973927;28;20473;-78
2022/12/03 09:36:35;;;;;;;29.13;18.13;;;6.30;99.90;;;;;;4974896;28;20038;-78
2022/12/03 09:39:01;;;;;;;27.90;17.67;;;6.30;99.90;;;;;;4973213;28;20050;-78
2022/12/03 09:41:27;;;;;;;27.90;19.65;;;6.40;99.90;;;;;;4972239;28;20033;-77
2022/12/03 09:43:54;;;;;;;34.30;19.38;;;6.60;99.90;;;;;;4974978;28;20026;-78
2022/12/03 09:46:21;;;;;;;35.55;17.90;;;6.60;99.90;;;;;;4972457;28;20035;-76
2022/12/03 09:48:47;;;;;;;31.08;18.45;;;6.60;99.90;;;;;;4956365;28;20057;-78
2022/12/03 09:51:13;;;;;;;32.95;19.58;;;6.60;99.90;;;;;;4974772;28;20058;-76
2022/12/03 09:53:40;;;;;;;39.03;20.83;;;6.70;99.90;;;;;;4973268;28;20038;-78
2022/12/03 09:56:13;;;;;;;33.78;20.95;;;6.90;99.90;;;;;;4974466;28;20039;-78
2022/12/03 09:58:40;;;;;;;35.35;20.80;;;7.10;99.90;;;;;;4950248;28;20040;-79
2022/12/03 10:01:12;;;;;;;24.17;15.90;;;7.10;99.90;;;;;;4971456;28;20039;-79
2022/12/03 10:03:48;;;;;;;33.77;19.40;;;7.00;99.90;;;;;;4960063;28;20034;-76
2022/12/03 10:06:18;;;;;;;27.67;16.63;;;7.10;99.90;;;;;;4971043;28;20691;-77
2022/12/03 10:08:50;;;;;;;26.38;17.23;;;7.10;99.90;;;;;;4972198;28;20420;-76
2022/12/03 10:11:18;;;;;;;30.00;19.15;;;7.20;99.90;;;;;;4972499;28;20071;-77
2022/12/03 10:13:46;;;;;;;34.63;20.55;;;7.20;99.90;;;;;;4954875;28;20062;-75
2022/12/03 10:16:14;;;;;;;32.20;19.20;;;7.40;99.90;;;;;;4974468;28;20038;-79
2022/12/03 10:18:50;;;;;;;35.42;23.08;;;7.40;99.90;;;;;;4974997;28;20041;-77
2022/12/03 10:21:33;;;;;;;32.15;19.67;;;7.40;99.90;;;;;;4977064;28;20109;-80
2022/12/03 10:24:21;;;;;;;35.70;23.30;;;7.40;99.90;;;;;;4980983;28;20027;-76
2022/12/03 10:26:49;;;;;;;40.63;24.88;;;7.40;99.90;;;;;;4980548;28;20022;-77
2022/12/03 10:29:34;;;;;;;44.55;28.52;;;7.40;99.90;;;;;;4977792;28;20034;-80
2022/12/03 10:32:06;;;;;;;44.88;27.52;;;7.50;99.90;;;;;;4977489;28;20053;-79
2022/12/03 10:34:44;;;;;;;35.15;22.60;;;7.60;99.90;;;;;;4979545;28;20038;-80
2022/12/03 10:37:21;;;;;;;36.65;22.27;;;7.60;99.90;;;;;;4981977;28;20027;-80
2022/12/03 10:40:07;;;;;;;33.03;18.08;;;7.70;99.90;;;;;;4961758;28;20031;-79
2022/12/03 10:42:35;;;;;;;41.03;25.15;;;7.80;99.90;;;;;;4974342;28;20019;-80
2022/12/03 10:45:14;;;;;;;40.90;25.08;;;7.80;99.90;;;;;;4978384;28;20027;-80
2022/12/03 10:47:40;;;;;;;49.78;33.30;;;7.90;99.90;;;;;;4973068;28;20023;-80
2022/12/03 10:50:16;;;;;;;41.92;28.80;;;8.10;99.90;;;;;;4973201;28;20046;-79
2022/12/03 10:52:43;;;;;;;43.88;28.13;;;8.20;99.90;;;;;;4976486;28;20520;-79
2022/12/03 10:55:12;;;;;;;44.70;29.08;;;8.20;99.90;;;;;;4974061;28;20039;-80
2022/12/03 10:57:39;;;;;;;43.78;29.60;;;8.20;99.90;;;;;;4977480;28;20033;-80
2022/12/03 11:00:07;;;;;;;44.75;29.83;;;8.30;99.90;;;;;;4960122;28;20039;-79
2022/12/03 11:02:33;;;;;;;43.38;30.08;;;8.30;99.90;;;;;;4973983;28;20085;-79
2022/12/03 11:04:59;;;;;;;43.05;27.77;;;8.30;99.90;;;;;;4973651;28;20031;-79
2022/12/03 11:07:25;;;;;;;47.53;29.75;;;8.30;99.90;;;;;;4973373;28;20488;-79
2022/12/03 11:09:57;;;;;;;41.85;29.38;;;8.50;99.90;;;;;;4972973;28;20206;-78
2022/12/03 11:12:33;;;;;;;37.78;23.52;;;8.60;99.90;;;;;;4976287;28;20057;-80
2022/12/03 11:15:09;;;;;;;33.00;18.45;;;8.70;99.90;;;;;;4974413;28;20031;-79
2022/12/03 11:17:41;;;;;;;36.67;25.63;;;8.70;99.90;;;;;;4952917;28;20091;-80
2022/12/03 11:20:19;;;;;;;32.85;23.15;;;8.80;99.90;;;;;;4972877;28;20027;-79
2022/12/03 11:22:48;;;;;;;31.48;16.05;;;8.80;99.90;;;;;;4972888;28;20022;-79
2022/12/03 11:25:26;;;;;;;24.63;15.30;;;8.70;99.90;;;;;;4972573;28;20066;-79
2022/12/03 11:28:14;;;;;;;26.80;16.85;;;8.70;99.90;;;;;;4973155;28;20031;-78
2022/12/03 11:30:59;;;;;;;31.63;20.45;;;8.80;99.90;;;;;;4972526;28;20398;-79
2022/12/03 11:33:37;;;;;;;41.53;20.13;;;8.90;99.90;;;;;;4972615;28;20038;-82
2022/12/03 11:36:02;;;;;;;35.80;19.70;;;9.00;99.90;;;;;;4972622;28;20027;-79
2022/12/03 11:38:39;;;;;;;37.88;19.83;;;9.00;99.90;;;;;;4972163;28;20026;-79
2022/12/03 11:41:20;;;;;;;27.02;15.73;;;9.10;99.90;;;;;;4970567;28;20086;-79
2022/12/03 11:43:52;;;;;;;24.88;15.07;;;9.10;99.90;;;;;;4973119;28;20114;-80
2022/12/03 11:46:23;;;;;;;25.23;16.15;;;9.20;99.90;;;;;;4976014;28;20369;-79
2022/12/03 11:48:52;;;;;;;34.78;23.27;;;9.20;99.90;;;;;;4974469;28;20031;-79
2022/12/03 11:51:21;;;;;;;47.28;28.95;;;9.30;99.90;;;;;;4974327;28;20108;-79
2022/12/03 11:53:50;;;;;;;52.63;32.95;;;9.30;99.90;;;;;;4956949;28;20034;-80
2022/12/03 11:56:23;;;;;;;60.80;37.65;;;9.40;99.90;;;;;;4955092;28;20390;-79
2022/12/03 11:58:58;;;;;;;52.05;35.95;;;9.40;99.90;;;;;;4972340;28;20051;-78
2022/12/03 12:01:33;;;;;;;53.95;34.70;;;9.40;99.90;;;;;;4955074;28;20038;-79
2022/12/03 12:03:59;;;;;;;50.13;34.47;;;9.50;99.90;;;;;;4972499;28;20096;-79
2022/12/03 12:06:24;;;;;;;53.45;34.95;;;9.50;99.90;;;;;;4971941;28;20026;-81
2022/12/03 12:08:50;;;;;;;48.17;33.22;;;9.40;99.90;;;;;;4971913;28;20535;-79
2022/12/03 12:11:42;;;;;;;55.85;34.78;;;9.30;99.90;;;;;;4972736;28;20026;-80
2022/12/03 12:14:12;;;;;;;57.28;37.22;;;9.30;99.90;;;;;;4972634;28;20033;-79
2022/12/03 12:16:41;;;;;;;61.40;37.38;;;9.30;99.90;;;;;;4972499;28;20045;-80
2022/12/03 12:19:46;;;;;;;52.22;32.85;;;9.20;99.90;;;;;;4954832;28;20098;-80
2022/12/03 12:22:23;;;;;;;54.28;33.80;;;9.20;99.90;;;;;;4971879;28;20046;-79
2022/12/03 12:24:52;;;;;;;54.50;34.60;;;9.20;99.90;;;;;;4972570;28;20469;-79
2022/12/03 12:27:44;;;;;;;49.25;31.10;;;9.30;99.90;;;;;;4972398;28;20018;-78
2022/12/03 12:30:18;;;;;;;56.10;31.77;;;9.20;99.90;;;;;;4972539;28;20043;-79
2022/12/03 12:32:49;;;;;;;52.95;33.03;;;9.20;99.90;;;;;;4972460;28;20046;-79
2022/12/03 12:35:22;;;;;;;47.67;30.98;;;9.20;99.90;;;;;;4972442;28;20385;-81
2022/12/03 12:37:49;;;;;;;47.33;31.88;;;9.20;99.90;;;;;;4972205;28;20030;-80
2022/12/03 12:40:17;;;;;;;52.83;33.88;;;9.30;99.90;;;;;;4972360;28;20038;-79
2022/12/03 12:43:10;;;;;;;54.72;35.88;;;9.30;99.90;;;;;;4971874;28;20023;-82
2022/12/03 12:45:40;;;;;;;52.58;35.17;;;9.40;99.90;;;;;;4969288;28;20454;-81
2022/12/03 12:48:08;;;;;;;52.53;37.22;;;9.40;99.90;;;;;;4976690;28;20073;-79
2022/12/03 12:50:39;;;;;;;52.83;36.28;;;9.50;99.90;;;;;;4954624;28;20058;-81
2022/12/03 12:53:21;;;;;;;52.38;36.85;;;9.50;99.90;;;;;;4973178;28;20460;-79
2022/12/03 12:55:52;;;;;;;63.20;44.17;;;9.60;99.90;;;;;;4954383;28;20066;-81
2022/12/03 12:58:19;;;;;;;70.95;47.97;;;9.50;99.90;;;;;;4974766;28;20094;-79
2022/12/03 13:00:57;;;;;;;51.83;33.03;;;9.70;99.90;;;;;;4972579;28;20027;-80
2022/12/03 13:03:28;;;;;;;48.28;28.05;;;9.70;99.90;;;;;;4970238;28;20358;-78
2022/12/03 13:05:56;;;;;;;41.15;26.02;;;9.80;99.90;;;;;;4970033;28;20053;-77
2022/12/03 13:08:39;;;;;;;42.47;25.85;;;9.90;99.90;;;;;;4953127;28;20098;-79